Time;durP1;ratioP1;P1;durP2;ratioP2;P2;SDS_P1;SDS_P2;PMS_P1;PMS_P2;Temp;Humidity;BMP_temperature;BMP_pressure;BME280_temperature;BME280_humidity;BME280_pressure;Samples;Min_cycle;Max_cycle;Signal;HPM_P1;HPM_P2
2023/09/22 00:01:55;;;;;;;11.18;9.95;;;;;;;12.10;100.00;99681.75;5029932;28;20025;-67
2023/09/22 00:04:21;;;;;;;12.18;9.70;;;;;;;12.07;100.00;99689.50;5028847;28;20029;-66
2023/09/22 00:06:46;;;;;;;10.63;9.25;;;;;;;12.03;100.00;99682.53;5029908;28;20041;-66
2023/09/22 00:09:11;;;;;;;10.50;9.02;;;;;;;12.03;100.00;99677.34;5029168;28;20027;-67
2023/09/22 00:11:37;;;;;;;11.25;8.55;;;;;;;11.95;100.00;99679.88;5031025;28;20071;-66
2023/09/22 00:14:03;;;;;;;10.48;8.52;;;;;;;11.98;100.00;99690.31;5029339;28;20123;-67
2023/09/22 00:16:29;;;;;;;9.15;7.60;;;;;;;11.96;100.00;99684.22;5031227;28;20105;-67
2023/09/22 00:18:54;;;;;;;9.30;8.02;;;;;;;11.98;100.00;99685.97;5029941;28;20076;-67
2023/09/22 00:21:20;;;;;;;8.45;7.47;;;;;;;11.96;100.00;99690.25;5030646;28;20086;-67
2023/09/22 00:23:45;;;;;;;9.00;7.03;;;;;;;11.92;100.00;99688.53;5029788;28;20032;-66
2023/09/22 00:26:11;;;;;;;8.73;7.88;;;;;;;11.84;100.00;99680.66;5030811;28;20466;-67
2023/09/22 00:28:36;;;;;;;8.73;7.82;;;;;;;11.84;100.00;99682.38;5029109;28;20032;-67
2023/09/22 00:31:01;;;;;;;11.25;6.88;;;;;;;11.74;100.00;99682.31;5030760;28;20385;-67
2023/09/22 00:33:26;;;;;;;8.45;7.20;;;;;;;11.74;100.00;99682.31;5028777;28;20116;-67
2023/09/22 00:35:52;;;;;;;10.63;7.78;;;;;;;11.72;100.00;99686.63;5029974;28;20025;-66
2023/09/22 00:38:17;;;;;;;9.27;7.72;;;;;;;11.73;100.00;99697.84;5029085;28;20026;-67
2023/09/22 00:40:42;;;;;;;12.15;8.30;;;;;;;11.69;100.00;99702.19;5026997;28;20477;-67
2023/09/22 00:43:12;;;;;;;9.70;8.15;;;;;;;11.64;100.00;99691.72;5027373;28;20028;-67
2023/09/22 00:45:43;;;;;;;11.27;8.30;;;;;;;11.65;100.00;99692.63;5040029;28;20100;-67
2023/09/22 00:48:09;;;;;;;10.73;8.52;;;;;;;11.67;100.00;99692.63;5038785;28;20119;-67
2023/09/22 00:50:37;;;;;;;11.73;8.35;;;;;;;11.64;100.00;99686.53;5027972;28;20108;-67
2023/09/22 00:53:03;;;;;;;10.45;7.78;;;;;;;11.68;100.00;99684.84;5026901;28;20021;-67
2023/09/22 00:55:29;;;;;;;13.38;9.07;;;;;;;11.68;100.00;99679.66;5027341;28;20025;-67
2023/09/22 00:57:54;;;;;;;13.45;9.57;;;;;;;11.68;100.00;99674.47;5026785;28;20324;-66
2023/09/22 01:00:19;;;;;;;14.23;9.73;;;;;;;11.65;100.00;99672.72;5032868;28;20501;-67
2023/09/22 01:02:45;;;;;;;14.63;9.55;;;;;;;11.63;100.00;99683.94;5034293;28;20061;-66
2023/09/22 01:05:10;;;;;;;12.43;9.70;;;;;;;11.62;100.00;99682.22;5048851;28;20115;-67
2023/09/22 01:07:37;;;;;;;11.95;10.20;;;;;;;11.58;100.00;99681.31;5037475;28;20072;-68
2023/09/22 01:10:09;;;;;;;12.85;9.45;;;;;;;11.51;100.00;99690.75;5029670;28;20030;-67
2023/09/22 01:12:35;;;;;;;13.77;9.40;;;;;;;11.51;100.00;99690.75;5030062;28;20083;-66
2023/09/22 01:15:00;;;;;;;12.43;9.05;;;;;;;11.51;100.00;99680.38;5023191;28;20040;-66
2023/09/22 01:17:26;;;;;;;15.55;10.48;;;;;;;11.48;100.00;99685.53;5049532;28;20037;-67
2023/09/22 01:19:51;;;;;;;12.68;9.80;;;;;;;11.45;100.00;99690.69;5048384;28;20382;-66
2023/09/22 01:22:16;;;;;;;14.73;9.73;;;;;;;11.43;100.00;99682.03;5049306;28;20033;-67
2023/09/22 01:24:41;;;;;;;12.95;10.32;;;;;;;11.40;100.00;99682.00;5048583;28;20052;-66
2023/09/22 01:27:08;;;;;;;16.17;10.90;;;;;;;11.37;100.00;99692.34;5049135;28;20075;-67
2023/09/22 01:29:33;;;;;;;15.15;10.63;;;;;;;11.30;100.00;99668.06;5049015;28;20538;-67
2023/09/22 01:32:00;;;;;;;16.00;10.95;;;;;;;11.31;100.00;99679.31;5049176;28;20041;-67
2023/09/22 01:34:25;;;;;;;14.02;10.95;;;;;;;11.27;100.00;99671.50;5048262;28;20024;-67
2023/09/22 01:36:50;;;;;;;18.60;11.90;;;;;;;11.27;100.00;99665.44;5049412;28;20037;-66
2023/09/22 01:39:16;;;;;;;15.95;10.95;;;;;;;11.24;100.00;99661.06;5030271;28;20049;-67
2023/09/22 01:41:42;;;;;;;15.88;11.13;;;;;;;11.23;100.00;99668.84;5029964;28;20029;-67
2023/09/22 01:44:07;;;;;;;16.52;11.82;;;;;;;11.23;100.00;99664.53;5047678;28;20484;-67
2023/09/22 01:46:32;;;;;;;16.42;10.82;;;;;;;11.20;100.00;99666.22;5049077;28;20303;-65
2023/09/22 01:48:58;;;;;;;19.00;11.63;;;;;;;11.16;100.00;99666.19;5048269;28;20021;-66
2023/09/22 01:51:23;;;;;;;14.25;10.10;;;;;;;11.17;100.00;99670.53;5048430;28;20401;-66
2023/09/22 01:53:49;;;;;;;17.88;11.80;;;;;;;11.15;100.00;99672.22;5034164;28;20039;-66
2023/09/22 01:56:14;;;;;;;16.58;11.57;;;;;;;11.17;100.00;99690.41;5047941;28;20117;-66
2023/09/22 01:58:39;;;;;;;19.20;11.35;;;;;;;11.17;100.00;99687.81;5045369;28;20017;-66
2023/09/22 02:01:05;;;;;;;18.25;12.52;;;;;;;11.18;100.00;99679.19;5047971;28;20021;-67
2023/09/22 02:03:30;;;;;;;17.92;12.52;;;;;;;11.17;100.00;99685.22;5046425;28;20472;-67
2023/09/22 02:05:58;;;;;;;17.88;12.38;;;;;;;11.15;100.00;99680.00;5048750;28;20623;-67
2023/09/22 02:08:24;;;;;;;17.60;12.32;;;;;;;11.15;100.00;99677.41;5047260;28;20448;-67
2023/09/22 02:10:49;;;;;;;16.88;11.45;;;;;;;11.14;100.00;99674.81;5048058;28;20098;-66
2023/09/22 02:13:14;;;;;;;15.52;11.32;;;;;;;11.13;100.00;99671.34;5045241;28;20111;-67
2023/09/22 02:15:40;;;;;;;18.80;11.55;;;;;;;11.12;100.00;99668.72;5046499;28;20287;-67
2023/09/22 02:18:05;;;;;;;15.43;11.05;;;;;;;11.13;100.00;99670.47;5046315;28;20062;-67
2023/09/22 02:20:31;;;;;;;17.83;11.68;;;;;;;11.13;100.00;99667.88;5047292;28;20028;-66
2023/09/22 02:22:57;;;;;;;18.05;11.32;;;;;;;11.13;100.00;99683.44;5045260;28;20091;-67
2023/09/22 02:25:24;;;;;;;20.95;11.77;;;;;;;11.15;100.00;99689.53;5046996;28;20221;-66
2023/09/22 02:27:54;;;;;;;15.65;11.15;;;;;;;11.14;100.00;99683.47;5045188;28;20021;-66
2023/09/22 02:30:21;;;;;;;19.60;11.38;;;;;;;11.16;100.00;99683.47;5046847;28;20032;-66
2023/09/22 02:32:48;;;;;;;17.20;10.77;;;;;;;11.19;100.00;99683.50;5045346;28;20090;-67
2023/09/22 02:35:14;;;;;;;18.35;11.55;;;;;;;11.19;100.00;99683.50;5047021;28;20032;-67
2023/09/22 02:37:40;;;;;;;18.48;11.95;;;;;;;11.19;100.00;99678.31;5039755;28;20037;-67
2023/09/22 02:40:06;;;;;;;18.58;12.25;;;;;;;11.19;100.00;99673.13;5028850;28;20029;-67
2023/09/22 02:42:31;;;;;;;19.75;11.68;;;;;;;11.21;100.00;99666.25;5029137;28;20036;-67
2023/09/22 02:44:57;;;;;;;19.52;11.40;;;;;;;11.24;100.00;99674.03;5028697;28;20063;-67
2023/09/22 02:47:22;;;;;;;17.45;12.05;;;;;;;11.26;100.00;99680.13;5029059;28;20017;-67
2023/09/22 02:49:47;;;;;;;18.40;11.68;;;;;;;11.27;100.00;99675.81;5027936;28;20029;-66
2023/09/22 02:52:14;;;;;;;17.60;11.05;;;;;;;11.28;100.00;99673.22;5027999;28;20409;-66
2023/09/22 02:54:39;;;;;;;18.25;11.73;;;;;;;11.28;100.00;99682.72;5028555;28;20424;-67
2023/09/22 02:57:04;;;;;;;18.42;11.40;;;;;;;11.29;100.00;99679.28;5028240;28;20021;-67
2023/09/22 02:59:30;;;;;;;18.45;11.30;;;;;;;11.31;100.00;99672.41;5027681;28;20060;-67
2023/09/22 03:01:55;;;;;;;18.85;11.18;;;;;;;11.33;100.00;99680.19;5033514;28;20036;-67
2023/09/22 03:04:21;;;;;;;18.77;10.93;;;;;;;11.31;100.00;99671.53;5048011;28;20028;-67
2023/09/22 03:06:46;;;;;;;16.95;10.80;;;;;;;11.33;100.00;99675.88;5042175;28;20041;-67
2023/09/22 03:09:11;;;;;;;14.90;10.48;;;;;;;11.33;100.00;99675.00;5039593;28;20064;-67
2023/09/22 03:11:36;;;;;;;17.48;10.38;;;;;;;11.35;100.00;99676.75;5040686;28;20533;-66
2023/09/22 03:14:03;;;;;;;17.77;11.23;;;;;;;11.36;100.00;99675.03;5038940;28;20028;-67
2023/09/22 03:16:28;;;;;;;16.00;10.10;;;;;;;11.36;100.00;99675.03;5029053;28;20041;-66
2023/09/22 03:18:54;;;;;;;14.02;10.63;;;;;;;11.37;100.00;99690.59;5027734;28;20029;-66
2023/09/22 03:21:25;;;;;;;15.75;10.63;;;;;;;11.36;100.00;99686.28;5045373;28;20525;-66
2023/09/22 03:23:51;;;;;;;14.30;9.43;;;;;;;11.36;100.00;99681.09;5046949;28;20025;-67
2023/09/22 03:26:18;;;;;;;15.85;9.82;;;;;;;11.37;100.00;99684.56;5046479;28;20055;-67
2023/09/22 03:28:44;;;;;;;14.75;9.13;;;;;;;11.38;100.00;99688.88;5047125;28;20056;-67
2023/09/22 03:31:09;;;;;;;16.15;9.73;;;;;;;11.38;100.00;99683.72;5046612;28;20064;-66
2023/09/22 03:33:35;;;;;;;13.40;9.27;;;;;;;11.36;100.00;99682.81;5047819;28;20520;-67
2023/09/22 03:36:01;;;;;;;15.18;9.45;;;;;;;11.34;100.00;99682.81;5046434;28;20033;-66
2023/09/22 03:38:28;;;;;;;14.23;9.32;;;;;;;11.36;100.00;99685.41;5035340;28;20337;-67
2023/09/22 03:40:59;;;;;;;10.75;7.57;;;;;;;11.36;100.00;99690.59;5046135;28;20025;-67
2023/09/22 03:43:25;;;;;;;13.48;8.60;;;;;;;11.36;100.00;99685.41;5048027;28;20526;-67
2023/09/22 03:45:56;;;;;;;11.82;8.05;;;;;;;11.37;100.00;99692.34;5046554;28;20025;-67
2023/09/22 03:48:22;;;;;;;10.10;7.03;;;;;;;11.37;100.00;99687.16;5047014;28;20107;-67
2023/09/22 03:50:48;;;;;;;12.10;7.93;;;;;;;11.38;100.00;99683.72;5047111;28;20766;-66
2023/09/22 03:53:13;;;;;;;9.90;6.78;;;;;;;11.38;100.00;99687.19;5046637;28;20025;-67
2023/09/22 03:55:39;;;;;;;12.50;8.65;;;;;;;11.38;100.00;99692.38;5039902;28;20119;-67
2023/09/22 03:58:05;;;;;;;12.48;7.45;;;;;;;11.39;100.00;99685.44;5027582;28;20032;-67
2023/09/22 04:00:30;;;;;;;9.27;6.70;;;;;;;11.41;100.00;99688.91;5027497;28;20025;-67
2023/09/22 04:02:56;;;;;;;9.40;6.68;;;;;;;11.42;100.00;99690.69;5027750;28;20632;-67
2023/09/22 04:05:21;;;;;;;9.75;6.05;;;;;;;11.43;100.00;99692.41;5026703;28;20458;-67
2023/09/22 04:07:47;;;;;;;10.32;6.15;;;;;;;11.41;100.00;99692.38;5027464;28;20092;-67
2023/09/22 04:10:12;;;;;;;14.50;6.18;;;;;;;11.44;100.00;99701.06;5027221;28;20096;-67
2023/09/22 04:12:37;;;;;;;9.80;5.93;;;;;;;11.45;100.00;99701.06;5027337;28;20032;-66
2023/09/22 04:15:08;;;;;;;8.25;6.22;;;;;;;11.46;100.00;99702.81;5034051;28;20053;-67
2023/09/22 04:17:34;;;;;;;8.13;5.63;;;;;;;11.47;100.00;99698.50;5045768;28;20020;-67
2023/09/22 04:20:00;;;;;;;7.93;5.50;;;;;;;11.49;100.00;99705.44;5046534;28;20029;-67
2023/09/22 04:22:26;;;;;;;10.05;5.50;;;;;;;11.50;100.00;99712.38;5045382;28;20425;-67
2023/09/22 04:25:00;;;;;;;9.27;6.07;;;;;;;11.50;100.00;99707.19;5026795;28;20108;-66
2023/09/22 04:27:32;;;;;;;6.72;5.10;;;;;;;11.46;100.00;99715.78;5041493;28;20029;-66
2023/09/22 04:29:58;;;;;;;10.43;5.22;;;;;;;11.44;100.00;99712.28;5046200;28;20029;-66
2023/09/22 04:32:23;;;;;;;11.75;5.38;;;;;;;11.43;100.00;99717.47;5045571;28;20036;-67
2023/09/22 04:34:50;;;;;;;11.02;5.00;;;;;;;11.42;100.00;99711.44;5045364;28;20381;-66
2023/09/22 04:37:15;;;;;;;9.88;4.93;;;;;;;11.41;100.00;99714.84;5043039;28;20083;-67
2023/09/22 04:39:40;;;;;;;9.95;4.75;;;;;;;11.39;100.00;99703.59;5029773;28;20033;-66
2023/09/22 04:42:06;;;;;;;9.23;4.90;;;;;;;11.37;100.00;99707.91;5031066;28;20032;-67
2023/09/22 04:44:31;;;;;;;6.53;4.57;;;;;;;11.39;100.00;99711.38;5031001;28;20025;-67
2023/09/22 04:46:56;;;;;;;6.88;4.63;;;;;;;11.37;100.00;99708.75;5031470;28;20056;-66
2023/09/22 04:49:22;;;;;;;6.18;4.38;;;;;;;11.37;100.00;99707.91;5031346;28;20481;-67
2023/09/22 04:51:48;;;;;;;6.03;4.35;;;;;;;11.35;100.00;99705.28;5031425;28;20025;-67
2023/09/22 04:54:13;;;;;;;5.40;4.13;;;;;;;11.32;100.00;99704.38;5031203;28;20393;-67
2023/09/22 04:56:38;;;;;;;6.88;4.38;;;;;;;11.33;100.00;99707.00;5031256;28;20048;-67
2023/09/22 04:59:04;;;;;;;5.45;3.70;;;;;;;11.34;100.00;99707.84;5030472;28;20116;-66
2023/09/22 05:01:32;;;;;;;7.18;4.30;;;;;;;11.34;100.00;99702.66;5040258;28;20032;-67
2023/09/22 05:03:58;;;;;;;11.35;3.92;;;;;;;11.31;100.00;99702.66;5045786;28;20031;-67
2023/09/22 05:06:23;;;;;;;7.35;3.92;;;;;;;11.33;100.00;99711.31;5043931;28;20049;-67
2023/09/22 05:08:49;;;;;;;5.40;4.20;;;;;;;11.32;100.00;99710.44;5038725;28;20032;-67
2023/09/22 05:11:14;;;;;;;9.05;4.40;;;;;;;11.29;100.00;99716.47;5031022;28;20033;-66
2023/09/22 05:13:39;;;;;;;5.10;3.80;;;;;;;11.26;100.00;99721.59;5019284;28;20053;-67
2023/09/22 05:16:10;;;;;;;5.40;3.58;;;;;;;11.29;100.00;99721.66;5019133;28;20108;-67
2023/09/22 05:18:36;;;;;;;4.70;3.95;;;;;;;11.29;100.00;99729.44;5022537;28;20029;-67
2023/09/22 05:21:02;;;;;;;6.45;3.53;;;;;;;11.28;100.00;99735.47;5022351;28;20496;-67
2023/09/22 05:23:29;;;;;;;5.30;3.70;;;;;;;11.29;100.00;99738.94;5021879;28;20052;-68
2023/09/22 05:25:54;;;;;;;6.10;3.30;;;;;;;11.27;100.00;99736.34;5022697;28;20123;-66
2023/09/22 05:28:20;;;;;;;7.72;3.80;;;;;;;11.27;100.00;99733.75;5023684;28;20051;-66
2023/09/22 05:30:45;;;;;;;7.00;3.40;;;;;;;11.25;100.00;99738.03;5022845;28;20033;-66
2023/09/22 05:33:10;;;;;;;6.22;3.42;;;;;;;11.22;100.00;99745.78;5024482;28;20104;-67
2023/09/22 05:35:36;;;;;;;8.60;3.38;;;;;;;11.23;100.00;99744.91;5020339;28;20029;-66
2023/09/22 05:38:03;;;;;;;6.93;3.25;;;;;;;11.23;100.00;99752.69;5026073;28;20298;-67
2023/09/22 05:40:32;;;;;;;4.78;3.20;;;;;;;11.23;100.00;99746.63;5024074;28;20053;-67
2023/09/22 05:42:57;;;;;;;3.95;3.05;;;;;;;11.21;100.00;99754.41;5025453;28;20026;-67
2023/09/22 05:45:23;;;;;;;5.50;2.70;;;;;;;11.25;100.00;99760.50;5015646;28;20428;-67
2023/09/22 05:47:48;;;;;;;6.93;3.25;;;;;;;11.23;100.00;99762.19;5014558;28;20032;-67
2023/09/22 05:50:14;;;;;;;7.45;3.50;;;;;;;11.22;100.00;99769.13;5020179;28;20039;-67
2023/09/22 05:52:39;;;;;;;5.38;3.28;;;;;;;11.21;100.00;99763.91;5014635;28;20025;-67
2023/09/22 05:55:06;;;;;;;5.15;2.60;;;;;;;11.20;100.00;99763.03;5015623;28;20032;-65
2023/09/22 05:57:33;;;;;;;6.50;2.92;;;;;;;11.21;100.00;99764.78;5011620;28;20623;-66
2023/09/22 05:59:59;;;;;;;5.22;2.78;;;;;;;11.23;100.00;99768.25;5018643;28;20478;-66
2023/09/22 06:02:25;;;;;;;7.93;3.30;;;;;;;11.23;100.00;99763.06;5009819;28;20037;-67
2023/09/22 06:04:52;;;;;;;7.38;2.90;;;;;;;11.26;100.00;99778.66;5016917;28;20032;-67
2023/09/22 06:07:18;;;;;;;6.22;2.92;;;;;;;11.27;100.00;99780.44;5017388;28;20053;-67
2023/09/22 06:09:45;;;;;;;14.13;3.97;;;;;;;11.28;100.00;99776.97;5010248;28;20034;-66
2023/09/22 06:12:11;;;;;;;3.40;2.80;;;;;;;11.29;100.00;99777.84;5020043;28;20033;-68
2023/09/22 06:14:36;;;;;;;5.82;3.03;;;;;;;11.31;100.00;99791.72;5022951;28;20082;-66
2023/09/22 06:17:01;;;;;;;6.78;2.97;;;;;;;11.34;100.00;99790.84;5016294;28;20363;-67
2023/09/22 06:19:27;;;;;;;3.42;2.47;;;;;;;11.36;100.00;99795.22;5022306;28;20025;-66
2023/09/22 06:21:52;;;;;;;4.20;2.80;;;;;;;11.38;100.00;99792.66;5013677;28;20029;-66
2023/09/22 06:24:17;;;;;;;5.72;2.72;;;;;;;11.40;100.00;99789.19;5018983;28;20029;-67
2023/09/22 06:26:43;;;;;;;5.35;2.33;;;;;;;11.40;100.00;99796.13;5019701;28;20021;-67
2023/09/22 06:29:09;;;;;;;8.32;2.88;;;;;;;11.43;100.00;99800.47;5021581;28;20029;-67
2023/09/22 06:31:35;;;;;;;5.18;2.28;;;;;;;11.47;100.00;99802.25;5018359;28;20535;-67
2023/09/22 06:34:00;;;;;;;4.72;2.53;;;;;;;11.46;100.00;99806.56;5020756;28;20037;-66
2023/09/22 06:36:25;;;;;;;5.28;2.80;;;;;;;11.51;100.00;99804.88;5016542;28;20461;-66
2023/09/22 06:38:51;;;;;;;4.47;2.22;;;;;;;11.53;100.00;99804.94;5020027;28;20040;-67
2023/09/22 06:41:18;;;;;;;4.32;2.35;;;;;;;11.57;100.00;99808.41;5020938;28;20424;-66
2023/09/22 06:43:44;;;;;;;6.47;2.60;;;;;;;11.60;100.00;99806.72;5024704;28;20025;-67
2023/09/22 06:46:10;;;;;;;3.80;2.70;;;;;;;11.76;100.00;99815.53;5021810;28;20037;-66
2023/09/22 06:48:36;;;;;;;6.00;2.65;;;;;;;11.93;100.00;99827.84;5021683;28;20037;-65
2023/09/22 06:51:01;;;;;;;4.43;2.17;;;;;;;12.04;100.00;99824.47;5007192;28;20048;-66
2023/09/22 06:53:29;;;;;;;3.47;1.75;;;;;;;12.06;100.00;99827.97;5018991;28;20034;-66
2023/09/22 06:56:09;;;;;;;3.78;1.95;;;;;;;12.05;100.00;99828.81;5016569;28;20471;-67
2023/09/22 06:58:36;;;;;;;3.80;1.92;;;;;;;12.08;100.00;99823.66;5012858;28;20063;-66
2023/09/22 07:01:12;;;;;;;6.18;2.20;;;;;;;12.08;100.00;99831.44;5019119;28;20033;-66
2023/09/22 07:03:42;;;;;;;2.53;1.60;;;;;;;12.07;100.00;99829.72;5020024;28;20033;-67
2023/09/22 07:06:10;;;;;;;4.25;2.08;;;;;;;12.09;100.00;99822.78;5018779;28;20040;-67
2023/09/22 07:08:36;;;;;;;5.00;1.73;;;;;;;12.10;100.00;99827.19;5018619;28;20466;-67
2023/09/22 07:11:02;;;;;;;2.60;1.90;;;;;;;12.09;100.00;99828.88;5019514;28;20053;-67
2023/09/22 07:13:29;;;;;;;2.42;1.85;;;;;;;12.08;100.00;99829.72;5015533;28;20044;-67
2023/09/22 07:15:55;;;;;;;2.60;1.88;;;;;;;12.12;100.00;99833.25;5012599;28;20038;-66
2023/09/22 07:18:21;;;;;;;3.42;2.00;;;;;;;12.20;100.00;99836.78;5018486;28;20492;-66
2023/09/22 07:20:48;;;;;;;4.53;1.70;;;;;;;12.25;100.00;99840.28;5013341;28;20117;-66
2023/09/22 07:23:14;;;;;;;4.45;1.83;;;;;;;12.36;100.00;99844.72;5012333;28;20168;-66
2023/09/22 07:25:39;;;;;;;4.55;1.65;;;;;;;12.55;100.00;99847.47;5012987;28;20037;-66
2023/09/22 07:28:05;;;;;;;3.28;1.23;;;;;;;12.83;100.00;99850.25;5015723;28;20276;-67
2023/09/22 07:30:30;;;;;;;4.32;1.85;;;;;;;13.23;100.00;99859.19;5014467;28;20059;-67
2023/09/22 07:32:55;;;;;;;3.13;0.90;;;;;;;13.51;100.00;99856.72;5017435;28;20033;-66
2023/09/22 07:35:21;;;;;;;1.42;1.00;;;;;;;13.98;100.00;99862.97;5021696;28;20025;-67
2023/09/22 07:37:46;;;;;;;1.92;1.10;;;;;;;14.35;100.00;99866.50;5024962;28;20036;-67
2023/09/22 07:40:12;;;;;;;2.75;0.93;;;;;;;14.45;100.00;99867.38;5027840;28;20022;-67
2023/09/22 07:42:39;;;;;;;2.78;0.80;;;;;;;14.65;100.00;99876.06;5027917;28;20025;-66
2023/09/22 07:45:06;;;;;;;1.45;0.90;;;;;;;15.33;100.00;99882.06;5027811;28;20025;-66
2023/09/22 07:47:31;;;;;;;3.38;0.88;;;;;;;15.74;100.00;99889.75;5027265;28;20022;-67
2023/09/22 07:49:57;;;;;;;4.03;0.90;;;;;;;15.58;100.00;99891.56;5034227;28;20071;-66
2023/09/22 07:52:22;;;;;;;1.67;0.90;;;;;;;15.91;100.00;99894.03;5047304;28;20472;-67
2023/09/22 07:54:49;;;;;;;1.20;0.73;;;;;;;16.31;100.00;99896.44;5027709;28;20026;-67
2023/09/22 07:57:14;;;;;;;2.72;0.90;;;;;;;16.76;100.00;99903.09;5027388;28;20122;-66
2023/09/22 07:59:40;;;;;;;2.20;1.05;;;;;;;17.15;100.00;99899.25;5038166;28;20627;-67
2023/09/22 08:02:06;;;;;;;2.33;0.80;;;;;;;17.42;100.00;99902.47;5042326;28;20460;-67
2023/09/22 08:04:31;;;;;;;2.90;0.77;;;;;;;16.99;100.00;99907.22;5035248;28;20037;-67
2023/09/22 08:06:59;;;;;;;2.13;0.80;;;;;;;16.85;100.00;99902.13;5036546;28;20393;-66
2023/09/22 08:09:25;;;;;;;4.13;0.60;;;;;;;17.10;100.00;99906.25;5032332;28;20057;-66
2023/09/22 08:11:50;;;;;;;1.73;0.85;;;;;;;17.38;100.00;99900.75;5038566;28;20060;-66
2023/09/22 08:14:15;;;;;;;1.50;0.60;;;;;;;17.64;100.00;99908.31;5036484;28;20025;-67
2023/09/22 08:16:40;;;;;;;1.23;0.50;;;;;;;17.81;100.00;99914.22;5044655;28;20021;-67
2023/09/22 08:19:10;;;;;;;1.02;0.40;;;;;;;18.17;100.00;99916.41;5038609;28;20537;-67
2023/09/22 08:21:37;;;;;;;2.35;0.68;;;;;;;18.38;100.00;99919.59;5042303;28;20029;-67
2023/09/22 08:24:03;;;;;;;1.00;0.40;;;;;;;18.30;99.03;99922.31;5036455;28;20033;-67
2023/09/22 08:26:31;;;;;;;1.90;0.65;;;;;;;18.23;95.69;99924.16;5040526;28;20052;-67
2023/09/22 08:28:57;;;;;;;2.63;0.63;;;;;;;18.30;98.24;99928.44;5035806;28;20025;-67
2023/09/22 08:31:22;;;;;;;1.10;0.40;;;;;;;18.24;94.38;99939.88;5038392;28;20035;-67
2023/09/22 08:33:47;;;;;;;1.00;0.52;;;;;;;17.59;93.96;99940.69;5033909;28;20025;-67
2023/09/22 08:36:14;;;;;;;2.78;0.77;;;;;;;16.82;98.18;99936.16;5036726;28;20029;-67
2023/09/22 08:38:39;;;;;;;2.05;0.55;;;;;;;17.16;100.00;99925.41;5030959;28;20025;-67
2023/09/22 08:41:05;;;;;;;1.10;0.55;;;;;;;17.36;100.00;99932.19;5031512;28;20032;-67
2023/09/22 08:43:32;;;;;;;2.20;0.60;;;;;;;17.74;100.00;99931.75;5037927;28;20116;-67
2023/09/22 08:45:59;;;;;;;1.77;0.60;;;;;;;17.85;100.00;99934.25;5038388;28;20025;-68
2023/09/22 08:48:24;;;;;;;3.10;0.80;;;;;;;17.72;99.04;99934.41;5036872;28;20037;-67
2023/09/22 08:50:50;;;;;;;3.05;0.80;;;;;;;17.65;96.75;99940.59;5038597;28;20531;-67
2023/09/22 08:53:16;;;;;;;3.58;0.73;;;;;;;17.64;100.00;99944.13;5042623;28;20032;-67
2023/09/22 08:55:41;;;;;;;1.30;0.52;;;;;;;17.40;96.13;99935.63;5031797;28;20414;-67
2023/09/22 08:58:07;;;;;;;1.98;0.43;;;;;;;17.26;98.01;99934.06;5035797;28;20408;-67
2023/09/22 09:00:33;;;;;;;1.83;0.40;;;;;;;16.65;96.47;99936.28;5033630;28;20501;-66
2023/09/22 09:03:07;;;;;;;1.23;0.70;;;;;;;16.59;100.00;99952.00;5034862;28;20033;-67
2023/09/22 09:05:33;;;;;;;1.38;0.68;;;;;;;16.44;100.00;99944.28;5033307;28;20144;-67
2023/09/22 09:08:12;;;;;;;1.00;0.45;;;;;;;16.23;100.00;99939.16;5033670;28;20047;-67
2023/09/22 09:10:39;;;;;;;0.50;0.50;;;;;;;16.01;100.00;99950.59;5039840;28;20040;-67
2023/09/22 09:13:07;;;;;;;1.15;0.70;;;;;;;16.16;100.00;99943.56;5031403;28;20033;-67
2023/09/22 09:15:47;;;;;;;5.25;0.50;;;;;;;16.29;100.00;99945.25;5029519;28;20332;-68
2023/09/22 09:18:16;;;;;;;2.10;0.60;;;;;;;16.34;100.00;99942.59;5041859;28;20017;-66
2023/09/22 09:20:42;;;;;;;1.40;0.65;;;;;;;16.33;100.00;99952.19;5042159;28;20155;-68
2023/09/22 09:23:12;;;;;;;3.58;0.50;;;;;;;16.67;100.00;99947.63;5049115;28;20170;-67
2023/09/22 09:25:44;;;;;;;3.17;0.50;;;;;;;16.74;100.00;99946.69;5047696;28;20035;-67
2023/09/22 09:28:12;;;;;;;1.35;0.40;;;;;;;16.81;98.91;99952.72;5048792;28;20362;-67
2023/09/22 09:30:38;;;;;;;1.58;0.47;;;;;;;16.92;100.00;99950.03;5046453;28;20067;-68
2023/09/22 09:33:10;;;;;;;2.17;0.70;;;;;;;16.78;100.00;99951.00;5047929;28;20037;-67
2023/09/22 09:35:38;;;;;;;1.08;0.50;;;;;;;16.84;99.12;99952.69;5047140;28;20033;-68
2023/09/22 09:38:04;;;;;;;1.45;0.50;;;;;;;16.91;98.44;99948.28;5038229;28;20063;-67
2023/09/22 09:40:30;;;;;;;1.10;0.30;;;;;;;16.99;98.17;99956.94;5029109;28;20052;-67
2023/09/22 09:42:59;;;;;;;1.50;0.50;;;;;;;17.03;96.98;99958.66;5028700;28;20064;-67
2023/09/22 09:45:30;;;;;;;0.40;0.38;;;;;;;16.86;95.38;99950.06;5028819;28;20044;-67
2023/09/22 09:47:58;;;;;;;1.33;0.50;;;;;;;16.65;97.99;99951.97;5029126;28;20460;-67
2023/09/22 09:50:25;;;;;;;3.03;1.00;;;;;;;16.66;100.00;99961.56;5028211;28;20029;-67
2023/09/22 09:52:57;;;;;;;1.48;0.60;;;;;;;16.85;98.51;99964.91;5028806;28;20026;-67
2023/09/22 09:55:25;;;;;;;1.67;0.60;;;;;;;16.93;100.00;99962.22;5045369;28;20047;-66
2023/09/22 09:57:52;;;;;;;1.73;0.60;;;;;;;16.97;98.56;99963.94;5036715;28;20053;-67
2023/09/22 10:00:20;;;;;;;1.15;0.65;;;;;;;16.92;98.19;99965.72;5028487;28;20045;-67
2023/09/22 10:02:50;;;;;;;1.08;0.45;;;;;;;16.97;100.00;99969.19;5028676;28;20021;-68
2023/09/22 10:05:17;;;;;;;3.90;0.60;;;;;;;17.08;100.00;99957.75;5028683;28;20025;-67
2023/09/22 10:07:45;;;;;;;1.10;0.60;;;;;;;16.96;98.85;99967.44;4987505;28;1188370;-67
2023/09/22 10:10:12;;;;;;;1.00;0.77;;;;;;;16.71;99.60;99957.19;5029709;28;20103;-68
2023/09/22 10:12:37;;;;;;;1.58;0.50;;;;;;;16.82;100.00;99962.31;5041182;28;20404;-68
2023/09/22 10:15:04;;;;;;;0.88;0.55;;;;;;;16.74;98.00;99951.91;5030803;28;20053;-68
2023/09/22 10:17:30;;;;;;;1.10;0.52;;;;;;;16.73;97.95;99958.00;5029341;28;20473;-67
2023/09/22 10:19:57;;;;;;;2.13;0.60;;;;;;;16.55;95.46;99952.03;5029503;28;20021;-67
2023/09/22 10:22:22;;;;;;;1.02;0.70;;;;;;;16.61;96.27;99956.38;5029117;28;20128;-67
2023/09/22 10:25:12;;;;;;;1.30;1.10;;;;;;;16.59;95.25;99957.25;5028985;28;20517;-67
2023/09/22 10:27:54;;;;;;;2.80;0.60;;;;;;;16.55;96.26;99956.41;5028908;28;20033;-68
2023/09/22 10:30:20;;;;;;;2.30;0.75;;;;;;;16.45;95.14;99950.38;5029134;28;20029;-67
2023/09/22 10:32:45;;;;;;;1.27;0.60;;;;;;;16.58;96.54;99951.16;5028690;28;20033;-67
2023/09/22 10:35:14;;;;;;;1.80;0.50;;;;;;;16.49;95.17;99949.50;5029216;28;20033;-67
2023/09/22 10:37:57;;;;;;;2.30;1.00;;;;;;;16.58;96.86;99953.78;5028300;28;20076;-67
2023/09/22 10:40:23;;;;;;;1.73;0.47;;;;;;;16.79;98.75;99957.97;5028655;28;20474;-67
2023/09/22 10:42:50;;;;;;;2.42;0.60;;;;;;;17.07;99.60;99953.41;5028329;28;20028;-68
2023/09/22 10:45:21;;;;;;;2.35;0.60;;;;;;;17.34;95.23;99951.44;5028575;28;20074;-67
2023/09/22 10:47:49;;;;;;;1.83;0.68;;;;;;;17.51;95.62;99965.22;5048528;28;20377;-67
2023/09/22 10:50:15;;;;;;;4.03;0.60;;;;;;;17.52;90.37;99960.84;5047645;28;20087;-68
2023/09/22 10:52:48;;;;;;;2.08;0.73;;;;;;;17.50;88.24;99954.75;5048200;28;20040;-67
2023/09/22 10:55:21;;;;;;;1.23;0.50;;;;;;;17.52;86.94;99966.94;5046780;28;20105;-68
2023/09/22 10:57:46;;;;;;;1.83;0.55;;;;;;;17.61;88.39;99965.13;5047784;28;20028;-68
2023/09/22 11:00:13;;;;;;;1.10;0.50;;;;;;;17.60;89.12;99963.34;5046630;28;20020;-68
2023/09/22 11:02:38;;;;;;;3.85;0.60;;;;;;;17.49;85.03;99963.47;5047728;28;20029;-68
2023/09/22 11:05:05;;;;;;;1.92;0.85;;;;;;;17.43;84.86;99955.69;5045884;28;20150;-68
2023/09/22 11:07:35;;;;;;;1.67;0.50;;;;;;;17.62;84.24;99945.88;5047110;28;20414;-68
2023/09/22 11:10:00;;;;;;;4.35;0.85;;;;;;;17.51;84.82;99954.72;5045647;28;20469;-67
2023/09/22 11:12:29;;;;;;;1.58;0.50;;;;;;;17.40;83.05;99962.69;5046765;28;20029;-67
2023/09/22 11:15:02;;;;;;;1.60;0.73;;;;;;;17.64;86.76;99954.59;5044658;28;20029;-68
2023/09/22 11:17:38;;;;;;;0.60;0.47;;;;;;;17.69;84.28;99960.66;5046364;28;20033;-67
2023/09/22 11:20:12;;;;;;;1.70;0.50;;;;;;;17.77;84.76;99961.41;5024345;28;20349;-68